Time;durP1;ratioP1;P1;durP2;ratioP2;P2;SDS_P1;SDS_P2;PMS_P1;PMS_P2;Temp;Humidity;BMP_temperature;BMP_pressure;BME280_temperature;BME280_humidity;BME280_pressure;Samples;Min_cycle;Max_cycle;Signal;HPM_P1;HPM_P2
2021/03/26 00:02:11;;;;;;;9.73;5.38;;;11.80;99.90;;;;;;4937592;29;20192;-76
2021/03/26 00:04:39;;;;;;;9.07;6.45;;;11.70;99.90;;;;;;4938523;29;20165;-78
2021/03/26 00:07:07;;;;;;;7.30;6.60;;;11.70;99.90;;;;;;4938006;29;20307;-77
2021/03/26 00:09:35;;;;;;;6.60;6.00;;;11.70;99.90;;;;;;4938922;29;20200;-76
2021/03/26 00:12:06;;;;;;;9.38;6.20;;;11.70;99.90;;;;;;4968629;28;20229;-76
2021/03/26 00:14:31;;;;;;;7.32;6.53;;;11.70;99.90;;;;;;4935690;29;20169;-78
2021/03/26 00:17:00;;;;;;;9.23;6.67;;;11.80;99.90;;;;;;4935550;29;20200;-77
2021/03/26 00:19:26;;;;;;;7.60;6.03;;;11.80;99.90;;;;;;4938443;29;20168;-77
2021/03/26 00:21:52;;;;;;;7.53;6.77;;;11.80;99.90;;;;;;4935454;29;20196;-77
2021/03/26 00:24:17;;;;;;;10.03;7.03;;;11.80;99.90;;;;;;4935381;29;20601;-78
2021/03/26 00:26:43;;;;;;;7.97;7.17;;;11.80;99.90;;;;;;4934869;29;20609;-79
2021/03/26 00:29:21;;;;;;;8.98;7.43;;;11.80;99.90;;;;;;4934839;29;20717;-78
2021/03/26 00:31:47;;;;;;;12.55;8.80;;;11.80;99.90;;;;;;4934628;29;20624;-77
2021/03/26 00:34:13;;;;;;;9.30;7.53;;;11.80;99.90;;;;;;4934735;29;20189;-78
2021/03/26 00:36:39;;;;;;;8.40;7.60;;;11.80;99.90;;;;;;4934132;29;20315;-78
2021/03/26 00:39:07;;;;;;;10.40;7.68;;;11.80;99.90;;;;;;4934632;29;20188;-77
2021/03/26 00:41:36;;;;;;;9.07;7.43;;;11.80;99.90;;;;;;4944104;29;20192;-77
2021/03/26 00:44:03;;;;;;;11.30;8.43;;;11.70;99.90;;;;;;4952388;28;20714;-77
2021/03/26 00:46:34;;;;;;;10.20;8.82;;;11.70;99.90;;;;;;4952053;28;20211;-77
2021/03/26 00:49:00;;;;;;;9.73;8.15;;;11.60;99.90;;;;;;4952582;29;20206;-78
2021/03/26 00:51:26;;;;;;;9.02;7.95;;;11.60;99.90;;;;;;4953494;28;20192;-77
2021/03/26 00:53:52;;;;;;;10.97;8.97;;;11.50;99.90;;;;;;4968660;28;20691;-78
2021/03/26 00:56:18;;;;;;;10.27;7.70;;;11.50;99.90;;;;;;4970707;28;20662;-78
2021/03/26 00:58:44;;;;;;;10.10;9.10;;;11.40;99.90;;;;;;4968144;28;21245;-77
2021/03/26 01:01:10;;;;;;;11.80;9.13;;;11.40;99.90;;;;;;4953285;28;20224;-78
2021/03/26 01:03:36;;;;;;;13.63;10.17;;;11.30;99.90;;;;;;4968807;28;20568;-78
2021/03/26 01:06:06;;;;;;;10.43;9.33;;;11.30;99.90;;;;;;4955859;29;21128;-78
2021/03/26 01:08:39;;;;;;;12.25;8.95;;;11.20;99.90;;;;;;4955873;29;20575;-77
2021/03/26 01:11:23;;;;;;;11.40;10.18;;;11.20;99.90;;;;;;4972022;28;20188;-77
2021/03/26 01:13:51;;;;;;;10.68;9.30;;;11.20;99.90;;;;;;4956121;29;20180;-77
2021/03/26 01:16:20;;;;;;;10.82;9.70;;;11.10;99.90;;;;;;4972040;28;20239;-77
2021/03/26 01:18:49;;;;;;;14.75;10.35;;;11.10;99.90;;;;;;4940458;29;20557;-77
2021/03/26 01:21:30;;;;;;;13.77;11.45;;;11.00;99.90;;;;;;4924580;29;20211;-78
2021/03/26 01:24:00;;;;;;;13.55;11.10;;;11.00;99.90;;;;;;4955887;29;20169;-77
2021/03/26 01:26:29;;;;;;;13.43;11.23;;;11.00;99.90;;;;;;4955966;29;20231;-76
2021/03/26 01:29:05;;;;;;;10.90;9.65;;;10.90;99.90;;;;;;4972128;28;20180;-78
2021/03/26 01:31:39;;;;;;;13.63;9.63;;;10.90;99.90;;;;;;4972007;28;20196;-78
2021/03/26 01:34:08;;;;;;;11.98;10.68;;;10.90;99.90;;;;;;4956891;29;20176;-78
2021/03/26 01:36:43;;;;;;;11.88;10.52;;;10.90;99.90;;;;;;4955392;29;20224;-78
2021/03/26 01:39:12;;;;;;;11.77;10.23;;;10.80;99.90;;;;;;4955470;29;20164;-77
2021/03/26 01:41:45;;;;;;;11.30;9.40;;;10.80;99.90;;;;;;4955446;28;20193;-78
2021/03/26 01:44:25;;;;;;;13.25;9.85;;;10.80;99.90;;;;;;4973046;28;20195;-79
2021/03/26 01:46:54;;;;;;;10.70;9.60;;;10.70;99.90;;;;;;4970771;28;20173;-78
2021/03/26 01:49:22;;;;;;;13.20;11.20;;;10.70;99.90;;;;;;4956686;28;20180;-77
2021/03/26 01:51:54;;;;;;;15.02;12.30;;;10.70;99.90;;;;;;4955272;28;20196;-78
2021/03/26 01:54:22;;;;;;;15.80;11.73;;;10.60;99.90;;;;;;4956372;28;20691;-78
2021/03/26 01:56:51;;;;;;;11.05;9.90;;;10.60;99.90;;;;;;4954725;29;20220;-78
2021/03/26 01:59:28;;;;;;;18.83;12.15;;;10.60;99.90;;;;;;4971281;28;20243;-78
2021/03/26 02:02:02;;;;;;;13.70;11.27;;;10.60;99.90;;;;;;4970884;28;20216;-76
2021/03/26 02:04:46;;;;;;;13.07;11.75;;;10.50;99.90;;;;;;4955243;29;20259;-77
2021/03/26 02:07:41;;;;;;;15.80;10.70;;;10.50;99.90;;;;;;4954925;29;20181;-78
2021/03/26 02:10:11;;;;;;;14.90;11.50;;;10.50;99.90;;;;;;4942183;28;20520;-78
2021/03/26 02:12:38;;;;;;;11.90;10.70;;;10.40;99.90;;;;;;4971010;28;20187;-78
2021/03/26 02:15:17;;;;;;;15.15;11.65;;;10.40;99.90;;;;;;4953889;28;20196;-78
2021/03/26 02:17:45;;;;;;;13.23;11.75;;;10.30;99.90;;;;;;4954536;28;20177;-78
2021/03/26 02:20:46;;;;;;;14.40;12.50;;;10.30;99.90;;;;;;4954506;28;20232;-78
2021/03/26 02:23:22;;;;;;;14.80;11.98;;;10.30;99.90;;;;;;4916746;29;20652;-78
2021/03/26 02:26:11;;;;;;;14.02;12.35;;;10.30;99.90;;;;;;4970741;28;20172;-77
2021/03/26 02:28:38;;;;;;;18.08;12.70;;;10.20;99.90;;;;;;4954260;29;20274;-78
2021/03/26 02:31:24;;;;;;;15.05;11.52;;;10.30;99.90;;;;;;4955647;28;20205;-78
2021/03/26 02:33:51;;;;;;;14.70;12.23;;;10.20;99.90;;;;;;4970645;28;20169;-79
2021/03/26 02:36:17;;;;;;;12.57;11.30;;;10.20;99.90;;;;;;4954221;29;20655;-77
2021/03/26 02:38:57;;;;;;;14.45;12.88;;;10.20;99.90;;;;;;4955634;28;20177;-78
2021/03/26 02:41:39;;;;;;;13.73;11.85;;;10.20;99.90;;;;;;4954397;28;20192;-78
2021/03/26 02:44:34;;;;;;;12.95;10.50;;;10.20;99.90;;;;;;4923026;29;20172;-78
2021/03/26 02:47:26;;;;;;;14.48;10.80;;;10.20;99.90;;;;;;4973304;28;20207;-79
2021/03/26 02:50:30;;;;;;;11.52;10.25;;;10.20;99.90;;;;;;4954149;28;20716;-77
2021/03/26 02:53:12;;;;;;;14.95;12.63;;;10.20;99.90;;;;;;4955364;28;20175;-78
2021/03/26 02:56:07;;;;;;;15.43;12.25;;;10.20;99.90;;;;;;4953971;28;20204;-79
2021/03/26 02:58:47;;;;;;;13.88;11.43;;;10.20;99.90;;;;;;4942814;29;20181;-77
2021/03/26 03:01:18;;;;;;;18.60;13.15;;;10.10;99.90;;;;;;4969931;28;20188;-78
2021/03/26 03:03:46;;;;;;;15.10;12.60;;;10.10;99.90;;;;;;4954012;29;20227;-79
2021/03/26 03:06:18;;;;;;;13.50;12.15;;;10.10;99.90;;;;;;4955214;28;20637;-78
2021/03/26 03:09:15;;;;;;;17.30;12.45;;;10.10;99.90;;;;;;4954193;29;20215;-78
2021/03/26 03:11:50;;;;;;;15.55;13.65;;;10.00;99.90;;;;;;4970003;28;20199;-78
2021/03/26 03:14:29;;;;;;;17.02;12.57;;;10.00;99.90;;;;;;4953872;29;20677;-78
2021/03/26 03:16:56;;;;;;;15.18;12.27;;;10.00;99.90;;;;;;4953202;29;20235;-78
2021/03/26 03:20:03;;;;;;;15.75;12.40;;;10.00;99.90;;;;;;4954918;28;20234;-77
2021/03/26 03:22:45;;;;;;;17.23;13.30;;;10.00;99.90;;;;;;4954449;29;20180;-77
2021/03/26 03:25:18;;;;;;;15.00;12.60;;;10.00;99.90;;;;;;4956391;29;20177;-78
2021/03/26 03:27:57;;;;;;;15.77;13.80;;;10.00;99.90;;;;;;4953042;28;20688;-78
2021/03/26 03:30:40;;;;;;;18.63;15.38;;;9.90;99.90;;;;;;4954571;28;20262;-77
2021/03/26 03:33:17;;;;;;;15.93;13.10;;;9.90;99.90;;;;;;4953306;29;20550;-78
2021/03/26 03:35:56;;;;;;;15.43;13.50;;;9.90;99.90;;;;;;4954487;28;20742;-77
2021/03/26 03:38:50;;;;;;;17.48;14.13;;;9.90;99.90;;;;;;4954140;28;20636;-78
2021/03/26 03:41:29;;;;;;;18.08;15.10;;;9.90;99.90;;;;;;4954483;28;20555;-77
2021/03/26 03:44:02;;;;;;;20.13;13.95;;;9.90;99.90;;;;;;4954357;28;20245;-77
2021/03/26 03:46:44;;;;;;;16.30;14.38;;;9.90;99.90;;;;;;4954099;28;20207;-78
2021/03/26 03:50:02;;;;;;;16.52;12.88;;;9.90;99.90;;;;;;4952399;28;20323;-78
2021/03/26 03:52:39;;;;;;;18.65;14.98;;;9.90;99.90;;;;;;4945820;29;20235;-78
2021/03/26 03:55:35;;;;;;;15.27;13.35;;;9.90;99.90;;;;;;4952926;29;20175;-77
2021/03/26 03:58:17;;;;;;;17.52;13.52;;;9.90;99.90;;;;;;4921406;29;20572;-78
2021/03/26 04:00:55;;;;;;;15.20;12.85;;;9.90;99.90;;;;;;4953795;28;20246;-77
2021/03/26 04:03:29;;;;;;;17.55;14.25;;;9.90;99.90;;;;;;4969087;28;20556;-76
2021/03/26 04:06:18;;;;;;;16.02;13.57;;;9.80;99.90;;;;;;4968884;28;20558;-77
2021/03/26 04:08:54;;;;;;;17.00;12.95;;;9.80;99.90;;;;;;4937315;29;20680;-78
2021/03/26 04:11:28;;;;;;;13.88;12.30;;;9.80;99.90;;;;;;4952567;28;20652;-77
2021/03/26 04:14:18;;;;;;;16.92;13.98;;;9.80;99.90;;;;;;4938251;29;20657;-78
2021/03/26 04:16:51;;;;;;;17.40;12.80;;;9.80;99.90;;;;;;4968176;28;20204;-79
2021/03/26 04:19:25;;;;;;;19.77;14.52;;;9.80;99.90;;;;;;4952747;28;20173;-78
2021/03/26 04:22:09;;;;;;;17.77;14.63;;;9.80;99.90;;;;;;4952415;28;20210;-78
2021/03/26 04:25:31;;;;;;;19.83;14.80;;;9.80;99.90;;;;;;4953941;29;20219;-78
2021/03/26 04:28:42;;;;;;;16.77;13.30;;;9.80;99.90;;;;;;4931834;29;20280;-77
2021/03/26 04:32:01;;;;;;;15.52;13.52;;;9.80;99.90;;;;;;4928467;29;20233;-77
2021/03/26 04:34:29;;;;;;;17.50;13.70;;;9.80;99.90;;;;;;4963906;28;20192;-77
2021/03/26 04:37:20;;;;;;;15.98;12.48;;;9.80;99.90;;;;;;4953156;28;20687;-77
2021/03/26 04:40:04;;;;;;;17.38;15.20;;;9.70;99.90;;;;;;4953588;28;20172;-78
2021/03/26 04:42:59;;;;;;;17.27;14.27;;;9.70;99.90;;;;;;4952329;29;20204;-77
2021/03/26 04:45:42;;;;;;;19.67;15.05;;;9.70;99.90;;;;;;4952328;29;20207;-78
2021/03/26 04:48:33;;;;;;;18.15;14.05;;;9.70;99.90;;;;;;4953351;29;20579;-77
2021/03/26 04:51:18;;;;;;;16.83;14.18;;;9.70;99.90;;;;;;4952446;28;20557;-78
2021/03/26 04:54:23;;;;;;;15.60;11.65;;;9.70;99.90;;;;;;4931799;29;20184;-76
2021/03/26 04:57:04;;;;;;;17.23;12.23;;;9.70;99.90;;;;;;4946833;28;20219;-77
2021/03/26 04:59:45;;;;;;;16.17;12.48;;;9.70;99.90;;;;;;4968310;28;20176;-78
2021/03/26 05:02:16;;;;;;;19.40;16.10;;;9.70;99.90;;;;;;4952094;28;20199;-77
2021/03/26 05:04:49;;;;;;;19.27;15.40;;;9.70;99.90;;;;;;4968373;28;20168;-77
2021/03/26 05:07:22;;;;;;;20.55;15.85;;;9.70;99.90;;;;;;4952153;28;20513;-77
2021/03/26 05:09:57;;;;;;;18.88;16.10;;;9.70;99.90;;;;;;4952747;29;20164;-76
2021/03/26 05:12:39;;;;;;;14.98;12.60;;;9.70;99.90;;;;;;4952200;29;20184;-78
2021/03/26 05:15:46;;;;;;;21.40;12.75;;;9.70;99.90;;;;;;4954491;29;20200;-77
2021/03/26 05:18:26;;;;;;;17.33;13.40;;;9.60;99.90;;;;;;4947396;29;20272;-76
2021/03/26 05:21:00;;;;;;;19.98;16.40;;;9.70;99.90;;;;;;4952416;28;20219;-77
2021/03/26 05:23:45;;;;;;;19.27;14.98;;;9.70;99.90;;;;;;4953912;28;20223;-76
2021/03/26 05:26:34;;;;;;;17.63;14.63;;;9.70;99.90;;;;;;4952668;29;20180;-76
2021/03/26 05:29:14;;;;;;;16.45;13.45;;;9.70;99.90;;;;;;4968202;28;20198;-77
2021/03/26 05:32:19;;;;;;;22.98;15.48;;;9.70;99.90;;;;;;4951832;28;20188;-77
2021/03/26 05:35:18;;;;;;;24.23;15.90;;;9.70;99.90;;;;;;4929452;28;20180;-77
2021/03/26 05:38:12;;;;;;;21.80;19.10;;;9.70;99.90;;;;;;4952664;28;20725;-76
2021/03/26 05:41:41;;;;;;;22.35;18.05;;;9.70;99.90;;;;;;4953252;28;20622;-77
2021/03/26 05:44:50;;;;;;;24.60;19.33;;;9.70;99.90;;;;;;4893713;29;20206;-77
2021/03/26 05:47:52;;;;;;;20.17;16.90;;;9.70;99.90;;;;;;4946238;29;20184;-77
2021/03/26 05:50:48;;;;;;;18.27;14.93;;;9.80;99.90;;;;;;4936016;28;20177;-76
2021/03/26 05:53:46;;;;;;;21.92;17.20;;;9.80;99.90;;;;;;4958437;29;20176;-76
2021/03/26 05:56:50;;;;;;;22.00;15.45;;;9.90;99.90;;;;;;4948720;29;20923;-77
2021/03/26 05:59:35;;;;;;;17.88;15.98;;;9.90;99.90;;;;;;4956401;28;20165;-77
2021/03/26 06:02:34;;;;;;;18.33;16.42;;;9.90;99.90;;;;;;4954976;28;20184;-76
2021/03/26 06:05:56;;;;;;;21.20;17.23;;;9.90;99.90;;;;;;4956256;29;20172;-76
2021/03/26 06:09:00;;;;;;;21.73;16.55;;;9.90;99.90;;;;;;4945121;29;20199;-76
2021/03/26 06:12:23;;;;;;;21.02;16.25;;;9.90;99.90;;;;;;4956841;28;20192;-77
2021/03/26 06:15:45;;;;;;;20.48;15.48;;;9.90;99.90;;;;;;4956130;29;20239;-75
2021/03/26 06:19:00;;;;;;;24.08;17.25;;;10.00;99.90;;;;;;4955651;29;20259;-76
2021/03/26 06:22:15;;;;;;;18.65;15.65;;;10.00;99.90;;;;;;4955768;28;20196;-76
2021/03/26 06:25:30;;;;;;;19.70;17.00;;;10.10;99.90;;;;;;4954700;29;20228;-76
2021/03/26 06:28:27;;;;;;;22.98;19.25;;;10.10;99.90;;;;;;4954531;29;20219;-76
2021/03/26 06:31:25;;;;;;;27.63;20.08;;;10.10;99.90;;;;;;4942099;29;20567;-76
2021/03/26 06:34:33;;;;;;;25.35;20.20;;;10.20;99.90;;;;;;4955690;29;20175;-76
2021/03/26 06:37:43;;;;;;;24.58;20.63;;;10.20;99.90;;;;;;4954171;28;20605;-76
2021/03/26 06:40:29;;;;;;;28.15;21.42;;;10.30;99.90;;;;;;4895839;29;20182;-76
2021/03/26 06:43:32;;;;;;;27.20;20.90;;;10.30;99.90;;;;;;4896189;29;20273;-77
2021/03/26 06:46:06;;;;;;;22.00;19.60;;;10.40;99.90;;;;;;4896096;29;20520;-77
2021/03/26 06:49:08;;;;;;;22.58;19.50;;;10.50;99.90;;;;;;4908084;29;20192;-77
2021/03/26 06:51:56;;;;;;;29.70;22.83;;;10.50;99.90;;;;;;4955397;28;20200;-76
2021/03/26 06:54:53;;;;;;;25.10;21.23;;;10.60;99.90;;;;;;4954169;29;20172;-76
2021/03/26 06:57:48;;;;;;;25.65;21.88;;;10.70;99.90;;;;;;4954926;28;20263;-76
2021/03/26 07:01:03;;;;;;;28.33;19.13;;;10.80;99.90;;;;;;4950987;28;20196;-75
2021/03/26 07:03:58;;;;;;;27.40;23.30;;;11.00;99.90;;;;;;4935986;29;20717;-77
2021/03/26 07:06:43;;;;;;;25.20;21.55;;;11.10;99.90;;;;;;4956067;28;20168;-76
2021/03/26 07:09:32;;;;;;;21.42;18.35;;;11.30;99.90;;;;;;4954768;29;20188;-77
2021/03/26 07:12:36;;;;;;;25.27;21.35;;;11.50;99.90;;;;;;4911438;29;20211;-77
2021/03/26 07:15:14;;;;;;;23.20;19.65;;;11.60;99.90;;;;;;4954476;29;20207;-77
2021/03/26 07:18:25;;;;;;;20.45;18.15;;;11.80;99.90;;;;;;4954648;28;20167;-77
2021/03/26 07:20:53;;;;;;;30.83;23.65;;;12.20;99.90;;;;;;4931091;28;20215;-76
2021/03/26 07:23:47;;;;;;;23.23;19.38;;;12.90;99.90;;;;;;4954641;29;20175;-76
2021/03/26 07:26:27;;;;;;;18.35;16.20;;;13.50;99.90;;;;;;4954746;28;20196;-77
2021/03/26 07:29:31;;;;;;;19.03;16.70;;;14.30;99.90;;;;;;4954673;28;20647;-77
2021/03/26 07:32:26;;;;;;;17.67;15.97;;;15.10;99.90;;;;;;4969455;28;20603;-77
2021/03/26 07:34:55;;;;;;;18.83;16.97;;;16.10;99.90;;;;;;4954603;28;20936;-75
2021/03/26 07:37:42;;;;;;;17.87;16.07;;;17.00;99.90;;;;;;4954093;28;21158;-76
2021/03/26 07:40:32;;;;;;;16.87;15.27;;;17.60;99.90;;;;;;4968913;28;20634;-75
2021/03/26 07:43:24;;;;;;;20.07;16.77;;;18.60;99.90;;;;;;4953632;29;20568;-75
2021/03/26 07:46:24;;;;;;;16.60;14.90;;;19.30;99.90;;;;;;4957312;28;20596;-76
2021/03/26 07:48:59;;;;;;;18.57;16.63;;;19.90;99.90;;;;;;4953066;29;21112;-76
2021/03/26 07:51:37;;;;;;;19.77;17.80;;;20.30;99.90;;;;;;4953445;28;20599;-75
2021/03/26 07:54:17;;;;;;;21.83;19.13;;;20.40;98.30;;;;;;4952786;29;20938;-76
2021/03/26 07:57:17;;;;;;;18.60;16.83;;;20.30;99.90;;;;;;4952111;29;20674;-77
2021/03/26 08:00:04;;;;;;;17.37;15.70;;;20.40;99.30;;;;;;4936530;29;20591;-75
2021/03/26 08:02:59;;;;;;;16.57;15.07;;;20.70;99.90;;;;;;4952742;29;20615;-75
2021/03/26 08:05:42;;;;;;;16.80;14.87;;;21.20;99.90;;;;;;4948046;29;20955;-76
2021/03/26 08:08:47;;;;;;;15.63;14.20;;;21.90;99.90;;;;;;4952080;29;21170;-76
2021/03/26 08:11:36;;;;;;;16.33;14.63;;;22.60;99.90;;;;;;4933192;29;20623;-74
2021/03/26 08:14:33;;;;;;;15.90;13.63;;;23.40;99.90;;;;;;4946081;29;20615;-75
2021/03/26 08:17:20;;;;;;;16.50;14.90;;;24.30;99.90;;;;;;4953345;28;20624;-75
2021/03/26 08:20:13;;;;;;;14.13;12.77;;;24.90;99.10;;;;;;4936311;29;20576;-75
2021/03/26 08:23:14;;;;;;;15.13;13.70;;;25.40;97.20;;;;;;4957138;28;20671;-74
2021/03/26 08:25:54;;;;;;;13.67;12.27;;;25.90;95.70;;;;;;4869022;28;20636;-75
2021/03/26 08:28:44;;;;;;;14.50;13.23;;;26.20;94.00;;;;;;4967931;28;20638;-76
2021/03/26 08:31:28;;;;;;;14.47;13.17;;;26.70;93.80;;;;;;4953433;28;20608;-76
2021/03/26 08:34:22;;;;;;;13.47;12.17;;;27.40;93.40;;;;;;4952397;29;20573;-74
2021/03/26 08:37:08;;;;;;;12.10;11.10;;;27.80;91.60;;;;;;4951730;28;20628;-74
2021/03/26 08:39:54;;;;;;;13.67;12.30;;;28.40;90.60;;;;;;4953684;28;20592;-76
2021/03/26 08:42:22;;;;;;;13.67;12.57;;;28.90;90.00;;;;;;4953210;28;20699;-75
2021/03/26 08:44:53;;;;;;;12.33;11.23;;;29.30;85.60;;;;;;4952249;28;20581;-76
2021/03/26 08:47:35;;;;;;;13.10;12.10;;;29.60;83.40;;;;;;4951684;28;20669;-76
2021/03/26 08:50:25;;;;;;;12.07;10.97;;;29.90;80.30;;;;;;4953323;28;20576;-75
2021/03/26 08:53:05;;;;;;;11.50;10.50;;;30.20;79.30;;;;;;4936282;29;20584;-75
2021/03/26 08:55:45;;;;;;;12.73;11.43;;;30.30;74.80;;;;;;4952946;29;20631;-76
2021/03/26 08:58:29;;;;;;;10.43;9.53;;;30.40;71.90;;;;;;4953123;28;20626;-76
2021/03/26 09:01:09;;;;;;;9.80;8.80;;;30.40;70.40;;;;;;4968112;28;20694;-75
2021/03/26 09:04:09;;;;;;;9.97;9.07;;;30.70;69.90;;;;;;4953311;28;20566;-75
2021/03/26 09:07:06;;;;;;;12.27;11.10;;;31.00;67.90;;;;;;4967393;28;20572;-74
2021/03/26 09:09:44;;;;;;;10.03;9.10;;;31.30;68.70;;;;;;4952295;29;21036;-74
2021/03/26 09:12:21;;;;;;;11.17;10.20;;;31.60;67.30;;;;;;4967728;28;20612;-74
2021/03/26 09:15:25;;;;;;;10.23;9.40;;;31.70;63.10;;;;;;4933997;29;20583;-76
2021/03/26 09:18:01;;;;;;;9.87;9.07;;;31.80;62.50;;;;;;4933190;29;20586;-74
2021/03/26 09:20:32;;;;;;;9.43;8.53;;;32.00;61.00;;;;;;4948174;28;20660;-75
2021/03/26 09:23:01;;;;;;;9.87;9.03;;;32.20;59.80;;;;;;4932537;29;20578;-74
2021/03/26 09:25:39;;;;;;;10.40;7.70;;;32.40;59.40;;;;;;4934721;29;21181;-75
2021/03/26 09:28:15;;;;;;;8.70;8.00;;;32.60;57.40;;;;;;4936922;29;20782;-75
2021/03/26 09:31:05;;;;;;;8.87;8.07;;;32.50;55.80;;;;;;4937670;29;20989;-74
2021/03/26 09:33:35;;;;;;;9.47;8.63;;;32.40;56.00;;;;;;4937520;29;20571;-75
2021/03/26 09:36:06;;;;;;;8.30;7.50;;;32.40;54.00;;;;;;4943841;29;20689;-76
2021/03/26 09:38:42;;;;;;;9.30;8.50;;;31.80;53.50;;;;;;4956383;28;20571;-74
2021/03/26 09:41:29;;;;;;;10.33;9.40;;;31.70;53.40;;;;;;4955339;28;21258;-75
2021/03/26 09:44:25;;;;;;;7.80;7.10;;;31.10;51.50;;;;;;4954383;29;20584;-75
2021/03/26 09:47:03;;;;;;;8.10;7.40;;;30.50;52.20;;;;;;4954889;29;20678;-75
2021/03/26 09:49:36;;;;;;;9.00;8.10;;;30.30;52.60;;;;;;4956607;28;20719;-75
2021/03/26 09:52:30;;;;;;;8.63;7.83;;;30.20;52.40;;;;;;4956325;28;21074;-74
2021/03/26 09:55:30;;;;;;;8.20;7.50;;;29.70;51.50;;;;;;4956649;28;21037;-76
2021/03/26 09:58:18;;;;;;;6.50;5.90;;;28.80;50.50;;;;;;4954856;28;20642;-76
2021/03/26 10:00:46;;;;;;;6.73;5.10;;;28.30;51.30;;;;;;4956060;28;21147;-76
2021/03/26 10:03:44;;;;;;;5.87;4.93;;;28.00;51.60;;;;;;4956364;28;20933;-75
2021/03/26 10:06:13;;;;;;;5.43;4.93;;;28.20;52.70;;;;;;4954895;28;20699;-76
2021/03/26 10:11:31;;;;;;;6.70;4.43;;;28.60;52.50;;;;;;4956117;28;20228;-76
2021/03/26 10:14:03;;;;;;;4.63;4.20;;;28.70;51.90;;;;;;4954972;28;20921;-75
2021/03/26 10:16:35;;;;;;;4.13;3.50;;;28.90;51.90;;;;;;4955656;28;21166;-76
2021/03/26 10:19:07;;;;;;;8.17;4.20;;;29.00;51.50;;;;;;4954574;28;20579;-75
2021/03/26 10:21:37;;;;;;;4.23;3.83;;;29.00;51.00;;;;;;4954673;28;20633;-75
2021/03/26 10:24:36;;;;;;;5.30;3.43;;;29.00;51.00;;;;;;4956042;28;21247;-75
2021/03/26 10:27:05;;;;;;;6.20;3.63;;;29.00;50.80;;;;;;4970269;28;21190;-75
2021/03/26 10:29:51;;;;;;;3.80;3.10;;;28.90;50.00;;;;;;4954484;28;21050;-75
2021/03/26 10:32:25;;;;;;;2.90;2.50;;;28.80;50.00;;;;;;4997989;23;20667;-82
2021/03/26 10:34:53;;;;;;;3.30;2.43;;;28.50;49.70;;;;;;5028938;28;20580;-83
2021/03/26 10:37:50;;;;;;;2.90;2.53;;;28.10;49.30;;;;;;5012251;28;20590;-82
2021/03/26 10:40:30;;;;;;;3.20;2.73;;;27.70;49.00;;;;;;5029259;28;21155;-80
2021/03/26 10:43:22;;;;;;;6.07;3.50;;;27.20;48.80;;;;;;5013691;28;21229;-80
2021/03/26 10:46:10;;;;;;;3.67;3.37;;;26.70;49.30;;;;;;5013545;28;21003;-82
2021/03/26 10:49:01;;;;;;;3.30;3.00;;;26.60;50.50;;;;;;5006677;28;20581;-80
2021/03/26 10:51:32;;;;;;;3.60;3.10;;;26.70;51.10;;;;;;5008738;28;20597;-82
2021/03/26 10:54:03;;;;;;;5.60;2.73;;;27.00;51.40;;;;;;5012607;28;21037;-79
2021/03/26 10:57:13;;;;;;;3.40;2.40;;;27.30;51.20;;;;;;5012034;28;20917;-80
2021/03/26 10:59:55;;;;;;;5.27;2.77;;;27.60;51.40;;;;;;5013818;28;20573;-82
2021/03/26 11:02:39;;;;;;;3.20;2.37;;;28.10;50.90;;;;;;5014721;28;20604;-79
2021/03/26 11:05:23;;;;;;;4.67;2.83;;;28.20;50.20;;;;;;5013342;28;20578;-81
2021/03/26 11:08:15;;;;;;;3.13;2.30;;;28.40;49.30;;;;;;5013066;28;20579;-81
2021/03/26 11:11:09;;;;;;;3.30;2.60;;;28.60;49.60;;;;;;5013360;28;20569;-81
2021/03/26 11:14:03;;;;;;;3.30;2.10;;;28.80;49.20;;;;;;5008173;28;20613;-81
2021/03/26 11:16:38;;;;;;;4.03;2.10;;;28.90;48.20;;;;;;5011568;28;20581;-81
2021/03/26 11:19:29;;;;;;;3.80;2.37;;;28.90;47.30;;;;;;5012977;28;20672;-81
2021/03/26 11:22:14;;;;;;;3.07;2.10;;;28.70;46.80;;;;;;5011238;28;20617;-81
2021/03/26 11:24:44;;;;;;;4.33;2.50;;;28.30;46.20;;;;;;5011724;28;20728;-81
2021/03/26 11:27:23;;;;;;;4.00;2.50;;;28.10;47.00;;;;;;5011169;28;20643;-81
2021/03/26 11:30:12;;;;;;;3.67;2.57;;;28.10;47.20;;;;;;4995441;28;20569;-81
2021/03/26 11:32:42;;;;;;;3.50;2.70;;;28.00;46.90;;;;;;5011312;28;20999;-81
2021/03/26 11:35:15;;;;;;;3.07;2.77;;;28.10;47.20;;;;;;5012757;28;20573;-81
2021/03/26 11:38:08;;;;;;;2.70;2.50;;;28.10;46.30;;;;;;5015482;28;20561;-81
2021/03/26 11:40:37;;;;;;;6.53;2.23;;;28.10;46.80;;;;;;5013104;28;20582;-81
2021/03/26 11:43:16;;;;;;;3.17;2.20;;;28.20;46.60;;;;;;5012534;28;20636;-81
2021/03/26 11:45:54;;;;;;;3.43;2.50;;;28.00;45.80;;;;;;5012583;28;20701;-81
2021/03/26 11:48:27;;;;;;;4.43;3.00;;;27.90;46.30;;;;;;5012601;28;20578;-81
2021/03/26 11:51:18;;;;;;;2.43;2.10;;;27.90;46.60;;;;;;4995371;28;21172;-81
2021/03/26 11:53:58;;;;;;;2.10;1.90;;;27.80;45.90;;;;;;5012521;28;20671;-80
2021/03/26 11:56:41;;;;;;;5.80;2.43;;;27.80;46.30;;;;;;5011106;28;20597;-80
2021/03/26 11:59:29;;;;;;;3.60;2.60;;;27.60;45.10;;;;;;5011381;28;20605;-81
2021/03/26 12:02:13;;;;;;;2.07;1.87;;;27.20;45.30;;;;;;5012536;28;20601;-80
2021/03/26 12:05:10;;;;;;;4.03;2.50;;;27.00;45.70;;;;;;5012485;28;20573;-80
2021/03/26 12:07:45;;;;;;;3.10;2.10;;;26.80;46.00;;;;;;5012356;28;20589;-81
2021/03/26 12:10:34;;;;;;;2.70;2.50;;;26.70;46.00;;;;;;5012661;28;20573;-80
2021/03/26 12:13:22;;;;;;;3.60;2.13;;;26.50;46.40;;;;;;5012485;28;20716;-80
2021/03/26 12:15:54;;;;;;;2.53;2.23;;;26.40;46.30;;;;;;5014281;28;20569;-81
2021/03/26 12:18:37;;;;;;;2.67;2.23;;;26.10;45.80;;;;;;5011882;28;21229;-80
2021/03/26 12:21:10;;;;;;;4.23;2.63;;;25.80;45.80;;;;;;5012204;28;20572;-80
2021/03/26 12:23:44;;;;;;;3.23;2.53;;;25.50;46.50;;;;;;5012289;28;21063;-80
2021/03/26 12:26:30;;;;;;;4.80;2.27;;;25.50;47.00;;;;;;5012525;28;21050;-80
2021/03/26 12:29:25;;;;;;;3.70;2.57;;;25.50;47.20;;;;;;5010960;28;20569;-80
2021/03/26 12:32:06;;;;;;;3.00;1.83;;;25.60;47.20;;;;;;5007498;28;20882;-80
2021/03/26 12:35:13;;;;;;;2.40;1.70;;;25.50;46.90;;;;;;5010599;28;20651;-80
2021/03/26 12:38:12;;;;;;;1.90;1.70;;;25.30;46.20;;;;;;5011255;28;20580;-80
2021/03/26 12:40:41;;;;;;;2.83;1.80;;;25.10;46.50;;;;;;5014025;28;20589;-80
2021/03/26 12:43:18;;;;;;;2.50;1.67;;;24.90;46.60;;;;;;5020312;28;20623;-80
2021/03/26 12:45:56;;;;;;;2.27;2.07;;;24.70;46.30;;;;;;5025368;28;20627;-80
2021/03/26 12:48:43;;;;;;;2.57;1.80;;;24.50;46.20;;;;;;5031273;28;20576;-80
2021/03/26 12:51:20;;;;;;;2.77;1.93;;;24.20;46.20;;;;;;5032460;28;20583;-80
2021/03/26 12:54:27;;;;;;;3.40;1.70;;;23.90;45.70;;;;;;5032783;28;20599;-80
2021/03/26 12:57:38;;;;;;;3.60;2.03;;;23.50;46.10;;;;;;5002366;28;20604;-80
2021/03/26 13:00:06;;;;;;;2.00;1.43;;;23.20;45.80;;;;;;5032614;28;20559;-79
2021/03/26 13:02:42;;;;;;;3.70;2.10;;;22.90;45.80;;;;;;5034016;28;20638;-80
2021/03/26 13:05:34;;;;;;;3.13;1.50;;;22.70;46.00;;;;;;5035172;28;20954;-80
2021/03/26 13:08:20;;;;;;;2.33;2.10;;;22.50;46.40;;;;;;5035347;28;20684;-80
2021/03/26 13:10:59;;;;;;;2.53;1.70;;;22.40;46.90;;;;;;5034110;28;20561;-80
2021/03/26 13:13:42;;;;;;;3.43;1.60;;;22.40;47.40;;;;;;5035006;28;20679;-80
2021/03/26 13:16:45;;;;;;;4.20;2.00;;;22.40;47.40;;;;;;5033650;28;20654;-80
2021/03/26 13:19:20;;;;;;;2.73;1.50;;;22.30;46.90;;;;;;5034965;28;20578;-80
2021/03/26 13:22:04;;;;;;;5.40;2.33;;;22.20;46.50;;;;;;5033502;28;20588;-79
2021/03/26 13:24:33;;;;;;;2.80;1.60;;;22.00;46.40;;;;;;5033707;28;20668;-79
2021/03/26 13:27:22;;;;;;;4.30;2.03;;;21.80;46.30;;;;;;5033125;28;20671;-80
2021/03/26 13:29:57;;;;;;;2.20;1.40;;;21.50;46.40;;;;;;5008698;28;20592;-79
2021/03/26 13:32:43;;;;;;;3.00;2.60;;;21.40;46.30;;;;;;5034609;28;20615;-79
2021/03/26 13:35:18;;;;;;;2.77;1.70;;;21.20;46.70;;;;;;5034677;28;20575;-79
2021/03/26 13:37:47;;;;;;;5.40;1.50;;;21.10;46.80;;;;;;5034563;28;20564;-79
2021/03/26 13:40:17;;;;;;;4.23;1.50;;;21.00;46.70;;;;;;5034740;28;20614;-79
2021/03/26 13:42:50;;;;;;;2.67;1.33;;;20.90;46.70;;;;;;5033274;28;20600;-79
2021/03/26 13:45:20;;;;;;;2.23;1.47;;;20.80;46.90;;;;;;5033453;28;20809;-79
2021/03/26 13:48:07;;;;;;;1.60;1.23;;;20.70;46.90;;;;;;5033213;28;20565;-80
2021/03/26 13:50:54;;;;;;;2.30;1.60;;;20.60;47.20;;;;;;5038793;28;20564;-79
2021/03/26 13:53:43;;;;;;;1.90;1.50;;;20.60;47.20;;;;;;5034499;28;20595;-79
2021/03/26 13:56:31;;;;;;;2.60;1.30;;;20.50;47.30;;;;;;5035279;28;20611;-79
2021/03/26 13:59:18;;;;;;;3.30;1.60;;;20.50;47.40;;;;;;5017804;28;20572;-79
2021/03/26 14:01:52;;;;;;;1.90;1.30;;;20.50;47.50;;;;;;5034303;28;20580;-79
2021/03/26 14:04:37;;;;;;;3.10;1.23;;;20.50;47.40;;;;;;5034255;28;21058;-79